createdAt,value
2018-03-11T00:01:20.672Z,129.80
2018-03-11T00:03:49.954Z,118.40
2018-03-11T00:06:19.096Z,120.00
2018-03-11T00:08:48.120Z,128.20
2018-03-11T00:11:17.003Z,132.80
2018-03-11T00:13:46.154Z,131.40
2018-03-11T00:16:15.163Z,134.80
2018-03-11T00:18:44.386Z,126.60
2018-03-11T00:21:13.412Z,121.60
2018-03-11T00:23:42.655Z,125.60
2018-03-11T00:26:12.639Z,133.20
2018-03-11T00:28:41.761Z,127.40
2018-03-11T00:31:10.786Z,131.40
2018-03-11T00:33:39.777Z,138.00
2018-03-11T00:36:08.780Z,121.20
2018-03-11T00:38:37.836Z,120.00
2018-03-11T00:41:07.436Z,127.60
2018-03-11T00:43:36.463Z,126.00
2018-03-11T00:46:05.876Z,128.60
2018-03-11T00:48:34.915Z,122.20
2018-03-11T00:51:04.136Z,134.60
2018-03-11T00:53:33.110Z,128.00
2018-03-11T00:56:02.580Z,133.80
2018-03-11T00:58:31.889Z,142.80
2018-03-11T01:01:00.950Z,133.20
2018-03-11T01:03:30.101Z,146.60
2018-03-11T01:05:59.076Z,136.20
2018-03-11T01:08:28.447Z,137.40
2018-03-11T01:10:57.462Z,139.20
2018-03-11T01:13:26.376Z,143.40
2018-03-11T01:15:55.405Z,148.80
2018-03-11T01:18:24.368Z,143.80
2018-03-11T01:20:53.458Z,134.40
2018-03-11T01:23:22.738Z,153.80
2018-03-11T01:25:51.677Z,152.80
2018-03-11T01:28:20.830Z,148.60
2018-03-11T01:30:50.109Z,154.00
2018-03-11T01:33:19.098Z,146.80
2018-03-11T01:35:48.103Z,141.20
2018-03-11T01:38:17.201Z,142.40
2018-03-11T01:40:46.532Z,147.00
2018-03-11T01:43:17.090Z,150.80
2018-03-11T01:45:46.372Z,158.80
2018-03-11T01:48:15.683Z,152.80
2018-03-11T01:50:44.636Z,166.00
2018-03-11T01:53:13.869Z,166.40
2018-03-11T01:55:42.848Z,155.60
2018-03-11T01:58:12.322Z,164.60
2018-03-11T02:00:41.224Z,153.00
2018-03-11T02:03:10.301Z,178.80
2018-03-11T02:05:39.208Z,200.40
2018-03-11T02:08:09.193Z,169.00
2018-03-11T02:10:38.352Z,170.20
2018-03-11T02:13:07.498Z,153.60
2018-03-11T02:15:36.379Z,176.00
2018-03-11T02:18:05.264Z,157.60
2018-03-11T02:20:34.504Z,152.40
2018-03-11T02:23:03.656Z,149.60
2018-03-11T02:25:32.742Z,155.80
2018-03-11T02:28:01.729Z,152.80
2018-03-11T02:30:30.852Z,142.20
2018-03-11T02:32:59.813Z,150.00
2018-03-11T02:35:28.923Z,148.20
2018-03-11T02:37:57.909Z,117.00
2018-03-11T02:40:26.907Z,137.80
2018-03-11T02:42:56.103Z,150.80
2018-03-11T02:45:25.507Z,148.80
2018-03-11T02:47:54.331Z,162.60
2018-03-11T02:50:29.119Z,140.60
2018-03-11T02:52:58.427Z,135.40
2018-03-11T02:55:27.582Z,132.40
2018-03-11T02:57:57.474Z,137.20
2018-03-11T03:00:26.792Z,126.80
2018-03-11T03:02:56.098Z,131.40
2018-03-11T03:05:25.182Z,145.40
2018-03-11T03:07:54.605Z,151.80
2018-03-11T03:10:23.592Z,150.60
2018-03-11T03:12:52.770Z,152.60
2018-03-11T03:15:22.193Z,143.00
2018-03-11T03:17:51.308Z,147.60
2018-03-11T03:20:20.828Z,144.80
2018-03-11T03:22:49.622Z,149.00
2018-03-11T03:25:18.652Z,150.60
2018-03-11T03:27:47.569Z,153.40
2018-03-11T03:30:16.531Z,152.40
2018-03-11T03:32:45.548Z,147.40
2018-03-11T03:35:14.631Z,151.00
2018-03-11T03:37:43.966Z,145.60
2018-03-11T03:40:12.938Z,134.40
2018-03-11T03:42:41.879Z,146.80
2018-03-11T03:45:10.993Z,152.20
2018-03-11T03:47:40.487Z,144.20
2018-03-11T03:50:09.250Z,140.60
2018-03-11T03:52:38.395Z,151.80
2018-03-11T03:55:07.308Z,133.00
2018-03-11T03:57:36.578Z,132.60
2018-03-11T04:00:05.833Z,137.60
2018-03-11T04:02:34.827Z,128.80
2018-03-11T04:05:04.399Z,128.20
2018-03-11T04:07:33.560Z,128.00
2018-03-11T04:10:02.991Z,136.20
2018-03-11T04:12:32.323Z,132.80
2018-03-11T04:15:01.517Z,137.80
2018-03-11T04:17:30.578Z,141.20
2018-03-11T04:19:59.753Z,141.40
2018-03-11T04:22:28.828Z,126.60
2018-03-11T04:24:57.923Z,116.00
2018-03-11T04:27:27.066Z,123.60
2018-03-11T04:29:56.063Z,114.40
2018-03-11T04:32:24.908Z,118.40
2018-03-11T04:34:54.026Z,111.00
2018-03-11T04:37:23.008Z,109.80
2018-03-11T04:39:52.019Z,97.80
2018-03-11T04:42:21.496Z,103.20
2018-03-11T04:44:50.580Z,95.20
2018-03-11T04:47:19.865Z,101.80
2018-03-11T04:49:49.272Z,93.20
2018-03-11T04:52:18.357Z,98.20
2018-03-11T04:54:47.554Z,110.00
2018-03-11T04:57:16.774Z,101.40
2018-03-11T04:59:45.766Z,98.40
2018-03-11T05:02:14.850Z,84.60
2018-03-11T05:04:44.231Z,94.60
2018-03-11T05:07:13.195Z,90.60
2018-03-11T05:09:43.514Z,99.60
2018-03-11T05:12:12.567Z,98.40
2018-03-11T05:14:41.577Z,91.00
2018-03-11T05:17:10.821Z,88.20
2018-03-11T05:19:40.131Z,91.00
2018-03-11T05:22:09.536Z,89.20
2018-03-11T05:24:38.685Z,89.60
2018-03-11T05:27:07.816Z,89.20
2018-03-11T05:29:37.111Z,86.60
2018-03-11T05:32:06.461Z,86.00
2018-03-11T05:34:35.740Z,89.40
2018-03-11T05:37:05.480Z,86.80
2018-03-11T05:39:34.812Z,102.20
2018-03-11T05:42:04.346Z,90.80
2018-03-11T05:44:33.753Z,81.20
2018-03-11T05:47:02.906Z,100.00
2018-03-11T05:49:32.165Z,91.60
2018-03-11T05:52:01.617Z,84.80
2018-03-11T05:54:30.582Z,83.60
2018-03-11T05:57:00.338Z,80.60
2018-03-11T05:59:29.828Z,78.00
2018-03-11T06:01:58.914Z,74.80
2018-03-11T06:04:27.908Z,77.80
2018-03-11T06:06:57.130Z,79.40
2018-03-11T06:09:25.972Z,80.60
2018-03-11T06:11:54.866Z,79.80
2018-03-11T06:14:23.833Z,78.60
2018-03-11T06:16:52.868Z,78.80
2018-03-11T06:19:21.868Z,74.60
2018-03-11T06:21:51.004Z,78.20
2018-03-11T06:24:19.827Z,76.80
2018-03-11T06:26:48.902Z,76.00
2018-03-11T06:29:18.046Z,74.40
2018-03-11T06:31:47.074Z,74.40
2018-03-11T06:34:16.082Z,73.20
2018-03-11T06:36:45.464Z,72.00
2018-03-11T06:39:14.857Z,70.40
2018-03-11T06:41:44.572Z,64.60
2018-03-11T06:44:15.330Z,60.60
2018-03-11T06:46:44.409Z,55.60
2018-03-11T06:49:14.050Z,54.00
2018-03-11T06:51:43.725Z,60.00
2018-03-11T06:54:13.592Z,54.20
2018-03-11T06:56:42.810Z,57.20
2018-03-11T06:59:12.443Z,58.00
2018-03-11T07:01:41.934Z,54.80
2018-03-11T07:04:11.208Z,53.80
2018-03-11T07:06:40.452Z,54.00
2018-03-11T07:09:09.666Z,55.40
2018-03-11T07:11:38.740Z,52.20
2018-03-11T07:14:07.937Z,53.00
2018-03-11T07:16:37.258Z,50.80
2018-03-11T07:19:06.191Z,49.20
2018-03-11T07:21:35.712Z,51.60
2018-03-11T07:24:04.893Z,52.60
2018-03-11T07:26:34.074Z,52.00
2018-03-11T07:29:03.292Z,50.60
2018-03-11T07:31:32.950Z,49.20
2018-03-11T07:34:02.842Z,49.00
2018-03-11T07:36:32.203Z,50.40
2018-03-11T07:39:01.191Z,54.00
2018-03-11T07:41:30.424Z,55.00
2018-03-11T07:43:59.673Z,48.00
2018-03-11T07:46:28.988Z,51.60
2018-03-11T07:48:58.149Z,51.60
2018-03-11T07:51:27.347Z,48.80
2018-03-11T07:53:56.494Z,44.00
2018-03-11T07:56:25.740Z,46.60
2018-03-11T07:58:54.744Z,42.60
2018-03-11T08:01:24.076Z,45.20
2018-03-11T08:03:53.307Z,44.80
2018-03-11T08:06:22.616Z,44.20
2018-03-11T08:08:55.700Z,41.40
2018-03-11T08:11:25.597Z,45.20
2018-03-11T08:13:56.610Z,42.60
2018-03-11T08:16:27.576Z,44.60
2018-03-11T08:18:57.570Z,40.60
2018-03-11T08:21:27.877Z,37.60
2018-03-11T08:23:59.563Z,42.00
2018-03-11T08:26:28.515Z,41.00
2018-03-11T08:28:57.813Z,42.40
2018-03-11T08:31:26.652Z,44.80
2018-03-11T08:33:55.612Z,45.00
2018-03-11T08:36:24.798Z,43.80
2018-03-11T08:38:53.911Z,46.60
2018-03-11T08:41:22.986Z,40.00
2018-03-11T08:43:52.239Z,43.80
2018-03-11T08:46:22.126Z,45.80
2018-03-11T08:48:51.292Z,45.00
2018-03-11T08:51:20.252Z,42.60
2018-03-11T08:53:49.746Z,42.40
2018-03-11T08:56:18.857Z,44.40
2018-03-11T08:58:48.284Z,43.50
2018-03-11T09:01:17.178Z,44.20
2018-03-11T09:03:46.290Z,43.00
2018-03-11T09:06:15.622Z,45.40
2018-03-11T09:08:44.978Z,44.80
2018-03-11T09:11:14.039Z,43.20
2018-03-11T09:13:43.105Z,41.00
2018-03-11T09:16:12.578Z,44.60
2018-03-11T09:18:41.539Z,43.20
2018-03-11T09:21:10.450Z,44.00
2018-03-11T09:23:39.821Z,46.80
2018-03-11T09:26:08.949Z,46.20
2018-03-11T09:32:45.602Z,43.75
2018-03-11T09:35:14.888Z,45.40
2018-03-11T09:37:59.289Z,43.00
2018-03-11T09:40:28.729Z,42.20
2018-03-11T09:42:58.223Z,42.00
2018-03-11T09:45:27.566Z,42.20
2018-03-11T09:47:56.994Z,44.60
2018-03-11T09:50:26.678Z,37.20
2018-03-11T09:52:56.304Z,44.20
2018-03-11T09:55:25.582Z,39.60
2018-03-11T09:57:54.844Z,41.80
2018-03-11T10:00:24.306Z,41.60
2018-03-11T10:02:53.397Z,43.00
2018-03-11T10:05:22.357Z,37.60
2018-03-11T10:07:51.656Z,35.00
2018-03-11T10:10:21.182Z,34.00
2018-03-11T10:12:50.868Z,38.00
2018-03-11T10:15:20.246Z,38.00
2018-03-11T10:17:49.389Z,37.40
2018-03-11T10:20:18.838Z,40.00
2018-03-11T10:22:48.196Z,37.60
2018-03-11T10:25:17.590Z,38.20
2018-03-11T10:27:46.955Z,40.80
2018-03-11T10:30:16.461Z,41.60
2018-03-11T10:32:45.699Z,39.60
2018-03-11T10:35:14.687Z,37.80
2018-03-11T10:37:43.999Z,40.40
2018-03-11T10:40:14.192Z,39.60
2018-03-11T10:42:43.682Z,38.20
2018-03-11T10:45:12.881Z,38.20
2018-03-11T10:47:42.332Z,39.40
2018-03-11T10:50:11.602Z,40.60
2018-03-11T10:52:40.718Z,39.40
2018-03-11T10:55:09.897Z,40.40
2018-03-11T10:57:39.351Z,36.80
2018-03-11T11:00:08.696Z,40.00
2018-03-11T11:02:38.043Z,40.00
2018-03-11T11:05:07.292Z,40.80
2018-03-11T11:07:36.672Z,38.80
2018-03-11T11:10:05.952Z,40.40
2018-03-11T11:12:34.982Z,40.20
2018-03-11T11:15:04.212Z,37.40
2018-03-11T11:17:33.277Z,36.60
2018-03-11T11:20:02.706Z,39.00
2018-03-11T11:22:31.971Z,36.00
2018-03-11T11:25:01.010Z,39.40
2018-03-11T11:27:30.708Z,35.00
2018-03-11T11:29:59.958Z,39.20
2018-03-11T11:32:29.176Z,43.20
2018-03-11T11:34:58.206Z,34.20
2018-03-11T11:37:28.239Z,39.80
2018-03-11T11:39:57.323Z,38.80
2018-03-11T11:42:26.479Z,39.40
2018-03-11T11:44:55.967Z,40.60
2018-03-11T11:47:25.496Z,37.60
2018-03-11T11:49:55.077Z,38.60
2018-03-11T11:52:24.404Z,44.20
2018-03-11T11:54:53.526Z,41.80
2018-03-11T11:57:23.880Z,40.00
2018-03-11T11:59:53.154Z,39.00
2018-03-11T12:02:22.480Z,37.80
2018-03-11T12:04:51.517Z,42.60
2018-03-11T12:07:20.997Z,39.80
2018-03-11T12:09:50.176Z,37.80
2018-03-11T12:12:19.858Z,38.60
2018-03-11T12:14:49.216Z,31.80
2018-03-11T12:17:18.785Z,39.80
2018-03-11T12:19:48.076Z,28.00
2018-03-11T12:22:17.404Z,38.00
2018-03-11T12:24:46.582Z,43.00
2018-03-11T12:27:16.053Z,47.80
2018-03-11T12:29:45.934Z,47.80
2018-03-11T12:32:15.054Z,47.50
2018-03-11T12:34:44.003Z,50.00
2018-03-11T12:37:13.296Z,47.80
2018-03-11T12:39:42.816Z,49.00
2018-03-11T12:42:12.440Z,46.20
2018-03-11T12:44:41.791Z,48.00
2018-03-11T12:47:11.144Z,46.40
2018-03-11T12:49:40.471Z,49.00
2018-03-11T12:52:09.881Z,48.80
2018-03-11T12:54:39.246Z,41.20
2018-03-11T12:57:08.364Z,43.00
2018-03-11T12:59:37.959Z,47.00
2018-03-11T13:02:07.254Z,45.00
2018-03-11T13:04:37.526Z,46.80
2018-03-11T13:07:07.312Z,48.00
2018-03-11T13:09:37.283Z,46.20
2018-03-11T13:12:07.117Z,45.20
2018-03-11T13:14:38.308Z,45.00
2018-03-11T13:17:08.313Z,48.60
2018-03-11T13:19:38.174Z,40.40
2018-03-11T13:22:08.210Z,40.80
2018-03-11T13:24:37.479Z,42.20
2018-03-11T13:27:06.544Z,46.80
2018-03-11T13:29:35.665Z,40.80
2018-03-11T13:32:16.388Z,39.40
2018-03-11T13:34:45.738Z,41.20
2018-03-11T13:37:14.842Z,32.20
2018-03-11T13:39:55.842Z,36.80
2018-03-11T13:42:25.121Z,35.80
2018-03-11T13:45:05.459Z,42.20
2018-03-11T13:47:34.789Z,39.80
2018-03-11T13:50:04.140Z,40.80
2018-03-11T13:52:44.522Z,37.60
2018-03-11T13:55:13.807Z,36.40
2018-03-11T14:00:43.421Z,38.00
2018-03-11T14:03:12.491Z,32.60
2018-03-11T14:05:41.958Z,30.20
2018-03-11T14:08:11.510Z,38.60
2018-03-11T14:10:40.653Z,32.40
2018-03-11T14:13:09.848Z,30.60
2018-03-11T14:15:39.568Z,34.80
2018-03-11T14:18:08.997Z,33.80
2018-03-11T14:20:38.239Z,35.20
2018-03-11T14:23:07.347Z,33.40
2018-03-11T14:25:36.624Z,31.60
2018-03-11T14:28:07.530Z,32.60
2018-03-11T14:30:36.880Z,29.40
2018-03-11T14:33:06.017Z,31.00
2018-03-11T14:35:35.635Z,32.60
2018-03-11T14:38:05.034Z,33.40
2018-03-11T14:40:35.733Z,32.60
2018-03-11T14:43:05.224Z,31.20
2018-03-11T14:45:34.571Z,33.40
2018-03-11T14:48:04.133Z,30.20
2018-03-11T14:50:33.093Z,33.80
2018-03-11T14:53:02.192Z,37.80
2018-03-11T14:55:31.373Z,34.80
2018-03-11T14:58:00.556Z,32.20
2018-03-11T15:00:30.065Z,38.40
2018-03-11T15:02:59.181Z,34.20
2018-03-11T15:05:28.690Z,31.40
2018-03-11T15:07:58.104Z,35.20
2018-03-11T15:10:27.360Z,32.40
2018-03-11T15:12:56.736Z,38.40
2018-03-11T15:15:25.825Z,35.20
2018-03-11T15:17:55.738Z,37.20
2018-03-11T15:20:25.351Z,35.40
2018-03-11T15:22:54.671Z,39.40
2018-03-11T15:25:24.323Z,39.00
2018-03-11T15:27:55.578Z,32.00
2018-03-11T15:30:25.271Z,38.80
2018-03-11T15:32:54.831Z,38.60
2018-03-11T15:35:25.103Z,36.00
2018-03-11T15:37:55.495Z,42.40
2018-03-11T15:40:24.918Z,35.00
2018-03-11T15:42:54.387Z,37.20
2018-03-11T15:45:23.702Z,41.80
2018-03-11T15:47:53.032Z,39.80
2018-03-11T15:50:22.298Z,42.40
2018-03-11T15:52:51.776Z,43.60
2018-03-11T15:55:20.955Z,45.80
2018-03-11T15:57:49.957Z,39.40
2018-03-11T16:00:19.267Z,44.20
2018-03-11T16:02:48.570Z,47.80
2018-03-11T16:05:18.183Z,46.60
2018-03-11T16:07:47.401Z,49.40
2018-03-11T16:10:16.631Z,46.20
2018-03-11T16:12:45.752Z,48.40
2018-03-11T16:15:14.789Z,47.00
2018-03-11T16:17:43.907Z,52.20
2018-03-11T16:20:12.908Z,52.80
2018-03-11T16:22:42.046Z,49.20
2018-03-11T16:25:11.498Z,50.00
2018-03-11T16:27:40.950Z,50.00
2018-03-11T16:30:10.109Z,52.20
2018-03-11T16:32:40.412Z,52.20
2018-03-11T16:35:09.710Z,57.40
2018-03-11T16:37:40.754Z,53.40
2018-03-11T16:40:11.259Z,59.80
2018-03-11T16:42:41.454Z,57.00
2018-03-11T16:45:12.071Z,57.20
2018-03-11T16:47:44.035Z,58.20
2018-03-11T16:50:13.227Z,55.40
2018-03-11T16:52:42.653Z,59.60
2018-03-11T16:55:11.880Z,56.20
2018-03-11T16:57:41.349Z,57.00
2018-03-11T17:00:10.864Z,58.60
2018-03-11T17:02:40.011Z,58.20
2018-03-11T17:05:09.029Z,57.60
2018-03-11T17:07:38.084Z,63.00
2018-03-11T17:10:06.933Z,58.20
2018-03-11T17:12:36.179Z,60.20
2018-03-11T17:15:05.494Z,59.60
2018-03-11T17:17:34.985Z,64.40
2018-03-11T17:20:04.161Z,67.40
2018-03-11T17:22:33.337Z,71.00
2018-03-11T17:25:02.817Z,69.60
2018-03-11T17:27:32.080Z,70.20
2018-03-11T17:30:01.217Z,71.00
2018-03-11T17:32:30.756Z,71.20
2018-03-11T17:34:59.932Z,71.00
2018-03-11T17:37:28.979Z,72.00
2018-03-11T17:39:59.397Z,68.60
2018-03-11T17:42:29.288Z,67.00
2018-03-11T17:44:58.775Z,72.20
2018-03-11T17:47:29.611Z,70.80
2018-03-11T17:49:59.109Z,69.60
2018-03-11T17:52:28.174Z,66.60
2018-03-11T17:54:58.075Z,62.80
2018-03-11T17:57:27.215Z,65.00
2018-03-11T17:59:56.288Z,64.40
2018-03-11T18:02:25.739Z,67.00
2018-03-11T18:04:55.028Z,66.40
2018-03-11T18:10:17.705Z,66.00
2018-03-11T18:12:47.090Z,65.00
2018-03-11T18:15:16.234Z,59.40
2018-03-11T18:17:45.191Z,66.00
2018-03-11T18:20:14.212Z,62.00
2018-03-11T18:22:43.429Z,64.60
2018-03-11T18:25:12.590Z,59.80
2018-03-11T18:27:41.762Z,62.20
2018-03-11T18:30:11.055Z,62.40
2018-03-11T18:32:41.841Z,61.00
2018-03-11T18:35:12.162Z,61.60
2018-03-11T18:37:42.053Z,60.80
2018-03-11T18:40:11.750Z,58.00
2018-03-11T18:42:42.001Z,60.80
2018-03-11T18:45:11.115Z,57.80
2018-03-11T18:47:40.340Z,61.20
2018-03-11T18:50:09.459Z,57.40
2018-03-11T18:52:38.765Z,57.80
2018-03-11T18:55:08.325Z,57.60
2018-03-11T18:57:37.661Z,61.60
2018-03-11T19:00:07.149Z,57.00
2018-03-11T19:02:36.581Z,54.80
2018-03-11T19:05:05.796Z,56.80
2018-03-11T19:07:35.083Z,54.80
2018-03-11T19:10:04.488Z,52.00
2018-03-11T19:12:33.707Z,47.20
2018-03-11T19:15:02.940Z,54.80
2018-03-11T19:17:32.047Z,52.60
2018-03-11T19:20:01.496Z,49.00
2018-03-11T19:22:30.448Z,53.40
2018-03-11T19:24:59.653Z,48.60
2018-03-11T19:27:28.836Z,51.20
2018-03-11T19:29:57.908Z,55.00
2018-03-11T19:32:27.065Z,53.20
2018-03-11T19:34:56.294Z,51.80
2018-03-11T19:37:25.300Z,51.80
2018-03-11T19:39:54.441Z,49.20
2018-03-11T19:42:23.638Z,50.40
2018-03-11T19:44:52.999Z,50.60
2018-03-11T19:47:22.420Z,54.00
2018-03-11T19:49:51.521Z,49.80
2018-03-11T19:52:20.708Z,53.00
2018-03-11T19:54:49.927Z,54.80
2018-03-11T19:57:19.815Z,52.20
2018-03-11T19:59:49.107Z,53.00
2018-03-11T20:02:18.255Z,48.00
2018-03-11T20:04:47.805Z,51.20
2018-03-11T20:07:17.191Z,50.20
2018-03-11T20:09:46.137Z,49.80
2018-03-11T20:12:15.750Z,52.40
2018-03-11T20:14:44.917Z,54.40
2018-03-11T20:17:14.369Z,53.00
2018-03-11T20:19:43.379Z,38.60
2018-03-11T20:22:12.766Z,50.60
2018-03-11T20:24:41.668Z,47.60
2018-03-11T20:27:10.893Z,50.80
2018-03-11T20:29:40.182Z,42.80
2018-03-11T20:32:09.631Z,48.80
2018-03-11T20:34:38.959Z,51.40
2018-03-11T20:37:08.257Z,47.40
2018-03-11T20:39:37.715Z,48.40
2018-03-11T20:42:07.271Z,47.60
2018-03-11T20:44:36.329Z,51.20
2018-03-11T20:47:05.585Z,50.00
2018-03-11T20:49:34.737Z,48.60
2018-03-11T20:52:04.356Z,40.00
2018-03-11T20:54:33.628Z,44.60
2018-03-11T20:57:02.923Z,42.20
2018-03-11T20:59:32.403Z,43.40
2018-03-11T21:02:02.022Z,42.00
2018-03-11T21:04:31.336Z,51.00
2018-03-11T21:07:00.860Z,41.20
2018-03-11T21:09:30.093Z,42.20
2018-03-11T21:11:59.539Z,42.80
2018-03-11T21:14:29.676Z,42.40
2018-03-11T21:16:58.938Z,43.60
2018-03-11T21:19:27.909Z,43.60
2018-03-11T21:21:57.286Z,43.80
2018-03-11T21:24:26.640Z,43.80
2018-03-11T21:26:55.865Z,41.00
2018-03-11T21:29:25.314Z,41.20
2018-03-11T21:31:54.561Z,44.20
2018-03-11T21:34:24.017Z,42.00
2018-03-11T21:36:53.243Z,43.60
2018-03-11T21:39:22.406Z,38.00
2018-03-11T21:41:51.831Z,47.40
2018-03-11T21:44:21.205Z,43.20
2018-03-11T21:46:50.702Z,45.60
2018-03-11T21:49:20.530Z,40.60
2018-03-11T21:51:49.914Z,39.80
2018-03-11T21:54:19.237Z,40.20
2018-03-11T21:56:48.672Z,33.20
2018-03-11T21:59:18.001Z,44.20
2018-03-11T22:01:47.369Z,41.40
2018-03-11T22:04:16.957Z,42.40
2018-03-11T22:06:46.063Z,46.60
2018-03-11T22:09:15.287Z,39.20
2018-03-11T22:11:44.599Z,39.20
2018-03-11T22:14:13.709Z,41.20
2018-03-11T22:16:42.916Z,42.00
2018-03-11T22:19:12.357Z,41.40
2018-03-11T22:21:41.680Z,42.80
2018-03-11T22:24:10.871Z,40.40
2018-03-11T22:26:40.011Z,37.80
2018-03-11T22:29:09.059Z,40.40
2018-03-11T22:31:38.291Z,39.00
2018-03-11T22:34:07.735Z,44.80
2018-03-11T22:36:36.890Z,38.60
2018-03-11T22:39:06.328Z,41.40
2018-03-11T22:41:35.566Z,36.40
2018-03-11T22:44:04.728Z,37.80
2018-03-11T22:46:33.916Z,39.80
2018-03-11T22:49:03.355Z,37.20
2018-03-11T22:51:32.731Z,40.20
2018-03-11T22:54:01.945Z,38.00
2018-03-11T22:56:31.281Z,41.40
2018-03-11T22:59:00.473Z,42.20
2018-03-11T23:01:29.902Z,39.00
2018-03-11T23:03:59.302Z,36.00
2018-03-11T23:06:28.528Z,40.80
2018-03-11T23:08:57.931Z,36.60
2018-03-11T23:11:27.229Z,43.20
2018-03-11T23:13:56.222Z,41.20
2018-03-11T23:16:25.482Z,36.60
2018-03-11T23:19:06.235Z,38.20
2018-03-11T23:21:35.578Z,40.80
2018-03-11T23:24:05.043Z,39.00
2018-03-11T23:26:34.434Z,39.20
2018-03-11T23:29:03.786Z,44.80
2018-03-11T23:31:33.430Z,39.20
2018-03-11T23:34:02.330Z,39.40
2018-03-11T23:36:31.845Z,41.20
2018-03-11T23:39:01.088Z,43.00
2018-03-11T23:41:30.283Z,36.80
2018-03-11T23:43:59.336Z,39.80
2018-03-11T23:46:28.524Z,39.40
2018-03-11T23:48:58.004Z,38.80
2018-03-11T23:51:27.355Z,39.40
2018-03-11T23:53:56.831Z,41.60
2018-03-11T23:56:26.066Z,38.80
2018-03-11T23:58:55.303Z,39.60
